createdAt,value
2023-04-02T00:00:16.157Z,5.43
2023-04-02T00:02:57.889Z,5.38
2023-04-02T00:05:50.923Z,5.35
2023-04-02T00:08:27.088Z,5.16
2023-04-02T00:10:58.077Z,5.09
2023-04-02T00:13:33.513Z,5.30
2023-04-02T00:16:06.714Z,5.29
2023-04-02T00:18:38.408Z,5.28
2023-04-02T00:21:13.964Z,5.22
2023-04-02T00:23:45.175Z,5.46
2023-04-02T00:26:24.874Z,5.48
2023-04-02T00:28:54.242Z,5.55
2023-04-02T00:31:24.487Z,5.57
2023-04-02T00:33:53.920Z,5.20
2023-04-02T00:36:24.562Z,5.60
2023-04-02T00:38:59.939Z,5.57
2023-04-02T00:41:32.233Z,5.51
2023-04-02T00:44:01.469Z,5.61
2023-04-02T00:46:34.782Z,5.70
2023-04-02T00:49:08.114Z,5.40
2023-04-02T00:51:41.992Z,5.11
2023-04-02T00:54:15.890Z,5.13
2023-04-02T00:56:46.448Z,5.16
2023-04-02T00:59:21.701Z,5.26
2023-04-02T01:01:56.134Z,5.29
2023-04-02T01:04:36.510Z,5.30
2023-04-02T01:07:08.843Z,5.10
2023-04-02T01:09:56.810Z,5.08
2023-04-02T01:12:42.278Z,5.04
2023-04-02T01:15:18.584Z,4.99
2023-04-02T01:18:13.972Z,5.08
2023-04-02T01:21:15.515Z,5.14
2023-04-02T01:23:56.387Z,5.42
2023-04-02T01:26:35.229Z,5.36
2023-04-02T01:29:10.198Z,5.35
2023-04-02T01:31:39.796Z,5.53
2023-04-02T01:34:11.313Z,5.56
2023-04-02T01:36:47.409Z,5.45
2023-04-02T01:39:28.781Z,5.39
2023-04-02T01:42:07.569Z,5.17
2023-04-02T01:44:41.941Z,4.96
2023-04-02T01:47:13.126Z,4.88
2023-04-02T01:49:43.963Z,4.97
2023-04-02T01:52:17.828Z,5.13
2023-04-02T01:54:47.513Z,5.02
2023-04-02T01:57:15.940Z,5.07
2023-04-02T01:59:45.977Z,4.94
2023-04-02T02:02:15.483Z,5.15
2023-04-02T02:04:44.118Z,5.23
2023-04-02T02:07:16.503Z,5.34
2023-04-02T02:09:45.597Z,5.34
2023-04-02T02:12:15.075Z,5.38
2023-04-02T02:14:50.323Z,5.17
2023-04-02T02:17:21.588Z,5.09
2023-04-02T02:19:54.240Z,5.10
2023-04-02T02:22:29.518Z,5.22
2023-04-02T02:25:00.459Z,4.99
2023-04-02T02:27:56.569Z,4.94
2023-04-02T02:30:30.708Z,4.86
2023-04-02T02:33:05.293Z,4.90
2023-04-02T02:35:38.811Z,4.96
2023-04-02T02:38:27.005Z,4.91
2023-04-02T02:40:59.557Z,4.87
2023-04-02T02:43:28.313Z,4.83
2023-04-02T02:45:59.716Z,4.81
2023-04-02T02:48:34.804Z,4.85
2023-04-02T02:51:06.156Z,4.76
2023-04-02T02:53:34.372Z,4.69
2023-04-02T02:56:03.672Z,4.73
2023-04-02T02:58:33.803Z,4.66
2023-04-02T03:01:05.308Z,4.54
2023-04-02T03:03:35.477Z,4.72
2023-04-02T03:06:07.069Z,4.71
2023-04-02T03:08:40.293Z,4.68
2023-04-02T03:11:14.103Z,4.77
2023-04-02T03:13:47.473Z,4.75
2023-04-02T03:16:21.963Z,4.74
2023-04-02T03:18:57.069Z,4.75
2023-04-02T03:21:33.233Z,4.84
2023-04-02T03:24:05.270Z,4.83
2023-04-02T03:26:39.938Z,4.83
2023-04-02T03:29:15.637Z,4.86
2023-04-02T03:31:49.711Z,4.92
2023-04-02T03:34:25.718Z,4.73
2023-04-02T03:36:58.304Z,4.83
2023-04-02T03:39:34.592Z,5.02
2023-04-02T03:42:07.021Z,5.04
2023-04-02T03:44:40.455Z,5.12
2023-04-02T03:47:17.745Z,4.96
2023-04-02T03:49:50.236Z,4.90
2023-04-02T03:52:24.489Z,4.66
2023-04-02T03:54:54.533Z,4.64
2023-04-02T03:57:30.070Z,4.64
2023-04-02T04:00:06.088Z,4.68
2023-04-02T04:02:45.636Z,4.63
2023-04-02T04:05:25.640Z,4.46
2023-04-02T04:07:57.194Z,4.36
2023-04-02T04:10:27.725Z,4.28
2023-04-02T04:13:03.270Z,4.22
2023-04-02T04:15:36.463Z,4.19
2023-04-02T04:18:19.462Z,4.15
2023-04-02T04:20:56.930Z,4.17
2023-04-02T04:23:31.396Z,4.20
2023-04-02T04:26:05.806Z,4.13
2023-04-02T04:28:41.857Z,4.10
2023-04-02T04:31:21.171Z,4.14
2023-04-02T04:34:03.381Z,4.03
2023-04-02T04:36:41.538Z,4.09
2023-04-02T04:39:16.213Z,4.10
2023-04-02T04:41:46.737Z,3.96
2023-04-02T04:44:20.957Z,3.98
2023-04-02T04:46:57.207Z,4.14
2023-04-02T04:49:33.708Z,4.11
2023-04-02T04:52:10.249Z,4.20
2023-04-02T04:54:40.066Z,4.42
2023-04-02T04:57:22.941Z,4.51
2023-04-02T05:00:00.232Z,4.15
2023-04-02T05:02:34.141Z,3.96
2023-04-02T05:05:05.441Z,3.97
2023-04-02T05:07:44.585Z,3.94
2023-04-02T05:10:21.237Z,4.28
2023-04-02T05:12:58.224Z,4.30
2023-04-02T05:15:31.007Z,4.35
2023-04-02T05:18:19.097Z,4.39
2023-04-02T05:20:54.196Z,4.22
2023-04-02T05:23:27.305Z,4.07
2023-04-02T05:26:02.197Z,4.09
2023-04-02T05:28:36.247Z,4.00
2023-04-02T05:31:08.282Z,4.05
2023-04-02T05:33:38.604Z,3.86
2023-04-02T05:36:11.928Z,4.11
2023-04-02T05:38:46.433Z,4.09
2023-04-02T05:41:26.908Z,4.08
2023-04-02T05:44:04.545Z,4.01
2023-04-02T05:46:38.037Z,3.99
2023-04-02T05:49:11.912Z,3.98
2023-04-02T05:51:47.454Z,4.39
2023-04-02T05:54:23.932Z,4.61
2023-04-02T05:56:56.794Z,4.59
2023-04-02T05:59:32.992Z,4.41
2023-04-02T06:02:05.859Z,4.29
2023-04-02T06:04:42.742Z,4.37
2023-04-02T06:07:17.433Z,4.23
2023-04-02T06:09:50.601Z,4.16
2023-04-02T06:12:29.810Z,4.25
2023-04-02T06:14:58.346Z,4.45
2023-04-02T06:17:27.470Z,4.55
2023-04-02T06:20:01.124Z,4.65
2023-04-02T06:22:36.667Z,4.62
2023-04-02T06:25:10.932Z,4.59
2023-04-02T06:27:41.358Z,4.51
2023-04-02T06:30:19.251Z,4.52
2023-04-02T06:32:47.569Z,4.51
2023-04-02T06:35:16.810Z,4.67
2023-04-02T06:37:49.516Z,4.87
2023-04-02T06:40:38.641Z,4.81
2023-04-02T06:43:15.417Z,4.81
2023-04-02T06:45:47.669Z,4.74
2023-04-02T06:48:18.671Z,4.89
2023-04-02T06:50:52.437Z,4.90
2023-04-02T06:53:27.635Z,5.03
2023-04-02T06:56:02.287Z,5.01
2023-04-02T06:58:30.767Z,4.88
2023-04-02T07:00:59.092Z,5.05
2023-04-02T07:03:29.786Z,5.36
2023-04-02T07:06:03.651Z,5.30
2023-04-02T07:08:33.208Z,5.34
2023-04-02T07:11:01.422Z,5.33
2023-04-02T07:13:29.845Z,5.56
2023-04-02T07:16:01.424Z,5.50
2023-04-02T07:18:32.252Z,5.47
2023-04-02T07:21:01.534Z,5.50
2023-04-02T07:23:32.523Z,5.65
2023-04-02T07:26:03.155Z,5.62
2023-04-02T07:28:32.369Z,5.56
2023-04-02T07:31:00.586Z,5.46
2023-04-02T07:33:31.122Z,6.03
2023-04-02T07:35:59.893Z,5.98
2023-04-02T07:38:28.711Z,5.96
2023-04-02T07:40:57.421Z,6.14
2023-04-02T07:43:27.288Z,6.19
2023-04-02T07:45:55.506Z,6.53
2023-04-02T07:48:24.047Z,6.65
2023-04-02T07:50:52.532Z,6.28
2023-04-02T07:53:30.073Z,6.16
2023-04-02T07:55:59.469Z,6.10
2023-04-02T07:58:29.803Z,6.24
2023-04-02T08:00:58.752Z,6.42
2023-04-02T08:03:27.282Z,6.43
2023-04-02T08:05:57.454Z,6.65
2023-04-02T08:08:26.785Z,6.77
2023-04-02T08:10:55.683Z,6.47
2023-04-02T08:13:23.815Z,6.63
2023-04-02T08:15:53.366Z,6.79
2023-04-02T08:18:24.868Z,6.96
2023-04-02T08:20:53.884Z,7.01
2023-04-02T08:23:22.806Z,6.79
2023-04-02T08:25:52.228Z,6.79
2023-04-02T08:28:22.107Z,6.99
2023-04-02T08:30:52.824Z,7.34
2023-04-02T08:33:21.750Z,7.18
2023-04-02T08:35:51.331Z,7.40
2023-04-02T08:38:22.238Z,7.34
2023-04-02T08:40:53.302Z,7.67
2023-04-02T08:43:53.955Z,8.63
2023-04-02T08:46:32.806Z,9.16
2023-04-02T08:49:06.050Z,9.44
2023-04-02T08:51:37.628Z,9.65
2023-04-02T08:54:17.684Z,9.57
2023-04-02T08:56:50.840Z,9.86
2023-04-02T08:59:29.340Z,10.11
2023-04-02T09:02:07.263Z,10.55
2023-04-02T09:04:37.267Z,10.32
2023-04-02T09:07:07.214Z,9.90
2023-04-02T09:09:39.309Z,10.11
2023-04-02T09:12:17.561Z,9.78
2023-04-02T09:14:47.717Z,10.51
2023-04-02T09:17:20.898Z,9.65
2023-04-02T09:19:56.267Z,10.26
2023-04-02T09:22:27.882Z,10.74
2023-04-02T09:24:58.868Z,10.85
2023-04-02T09:27:31.626Z,10.38
2023-04-02T09:30:04.983Z,10.30
2023-04-02T09:32:49.626Z,10.29
2023-04-02T09:35:36.399Z,10.42
2023-04-02T09:38:22.445Z,10.47
2023-04-02T09:40:58.606Z,10.68
2023-04-02T09:43:31.888Z,10.21
2023-04-02T09:46:03.251Z,10.36
2023-04-02T09:48:35.418Z,10.84
2023-04-02T09:51:25.617Z,10.42
2023-04-02T09:54:10.272Z,10.93
2023-04-02T09:56:39.629Z,10.65
2023-04-02T09:59:17.294Z,10.65
2023-04-02T10:01:48.110Z,10.58
2023-04-02T10:04:38.640Z,10.44
2023-04-02T10:07:10.321Z,10.56
2023-04-02T10:09:40.912Z,10.33
2023-04-02T10:12:15.572Z,10.54
2023-04-02T10:14:49.501Z,10.44
2023-04-02T10:17:24.718Z,10.44
2023-04-02T10:20:00.260Z,10.50
2023-04-02T10:22:30.215Z,10.53
2023-04-02T10:25:00.653Z,10.63
2023-04-02T10:27:37.775Z,10.93
2023-04-02T10:30:16.998Z,10.76
2023-04-02T10:32:50.288Z,11.09
2023-04-02T10:35:34.463Z,11.03
2023-04-02T10:38:31.230Z,10.77
2023-04-02T10:41:02.263Z,10.98
2023-04-02T10:43:54.124Z,10.56
2023-04-02T10:46:27.809Z,10.40
2023-04-02T10:49:09.490Z,10.65
2023-04-02T10:51:48.627Z,10.68
2023-04-02T10:54:34.426Z,10.70
2023-04-02T10:57:13.156Z,10.86
2023-04-02T10:59:45.746Z,10.82
2023-04-02T11:02:32.592Z,10.97
2023-04-02T11:05:09.054Z,10.52
2023-04-02T11:07:53.602Z,10.72
2023-04-02T11:10:23.837Z,10.67
2023-04-02T11:13:00.666Z,10.89
2023-04-02T11:15:32.082Z,10.99
2023-04-02T11:18:01.358Z,10.92
2023-04-02T11:20:58.964Z,10.68
2023-04-02T11:23:31.758Z,10.77
2023-04-02T11:26:37.690Z,10.97
2023-04-02T11:29:16.815Z,10.84
2023-04-02T11:31:46.343Z,10.97
2023-04-02T11:34:17.654Z,11.00
2023-04-02T11:37:03.569Z,11.15
2023-04-02T11:39:57.445Z,11.03
2023-04-02T11:42:31.716Z,11.40
2023-04-02T11:45:03.332Z,11.25
2023-04-02T11:47:32.188Z,10.82
2023-04-02T11:50:06.199Z,10.87
2023-04-02T11:52:39.363Z,10.80
2023-04-02T11:55:27.505Z,11.01
2023-04-02T11:58:28.918Z,11.10
2023-04-02T12:01:31.355Z,11.14
2023-04-02T12:04:32.007Z,11.30
2023-04-02T12:07:22.060Z,11.26
2023-04-02T12:09:53.937Z,11.58
2023-04-02T12:12:33.679Z,11.87
2023-04-02T12:15:02.539Z,11.31
2023-04-02T12:17:32.817Z,11.45
2023-04-02T12:20:06.048Z,11.98
2023-04-02T12:22:36.074Z,11.95
2023-04-02T12:25:07.772Z,11.43
2023-04-02T12:27:38.460Z,11.54
2023-04-02T12:30:16.177Z,11.58
2023-04-02T12:32:44.802Z,11.47
2023-04-02T12:35:29.577Z,11.58
2023-04-02T12:37:58.533Z,11.50
2023-04-02T12:40:27.700Z,11.66
2023-04-02T12:42:57.331Z,12.03
2023-04-02T12:45:29.580Z,11.77
2023-04-02T12:47:59.704Z,11.82
2023-04-02T12:50:28.612Z,12.24
2023-04-02T12:52:59.030Z,12.26
2023-04-02T12:55:28.866Z,11.74
2023-04-02T12:57:59.682Z,11.73
2023-04-02T13:00:36.481Z,11.82
2023-04-02T13:03:21.872Z,11.97
2023-04-02T13:05:56.585Z,11.97
2023-04-02T13:08:27.629Z,11.97
2023-04-02T13:10:58.934Z,11.87
2023-04-02T13:13:31.910Z,11.79
2023-04-02T13:16:06.083Z,12.05
2023-04-02T13:18:37.010Z,11.59
2023-04-02T13:21:06.575Z,11.78
2023-04-02T13:23:38.142Z,11.79
2023-04-02T13:26:19.644Z,11.60
2023-04-02T13:28:59.728Z,11.75
2023-04-02T13:31:30.277Z,11.91
2023-04-02T13:34:01.675Z,12.28
2023-04-02T13:36:30.058Z,12.06
2023-04-02T13:38:59.025Z,12.19
2023-04-02T13:41:29.363Z,12.56
2023-04-02T13:44:01.070Z,12.37
2023-04-02T13:46:31.752Z,11.80
2023-04-02T13:49:00.804Z,11.99
2023-04-02T13:51:37.544Z,12.16
2023-04-02T13:54:11.854Z,11.88
2023-04-02T13:56:40.229Z,11.94
2023-04-02T13:59:10.249Z,12.03
2023-04-02T14:01:38.864Z,11.92
2023-04-02T14:04:08.094Z,11.98
2023-04-02T14:07:01.804Z,11.74
2023-04-02T14:09:36.925Z,11.90
2023-04-02T14:12:12.712Z,12.28
2023-04-02T14:14:59.641Z,11.82
2023-04-02T14:17:41.104Z,11.75
2023-04-02T14:20:24.458Z,11.81
2023-04-02T14:23:18.044Z,11.76
2023-04-02T14:25:55.162Z,11.78
2023-04-02T14:28:30.167Z,11.71
2023-04-02T14:31:08.472Z,11.80
2023-04-02T14:33:44.893Z,11.77
2023-04-02T14:36:20.156Z,11.64
2023-04-02T14:38:57.115Z,11.73
2023-04-02T14:41:31.527Z,11.97
2023-04-02T14:44:03.363Z,11.95
2023-04-02T14:46:37.695Z,11.95
2023-04-02T14:49:22.837Z,12.02
2023-04-02T14:51:59.037Z,11.93
2023-04-02T14:54:35.686Z,11.72
2023-04-02T14:57:11.564Z,11.99
2023-04-02T14:59:47.916Z,11.97
2023-04-02T15:02:24.651Z,11.69
2023-04-02T15:05:01.129Z,11.52
2023-04-02T15:07:37.490Z,11.74
2023-04-02T15:10:15.859Z,11.28
2023-04-02T15:12:48.035Z,11.68
2023-04-02T15:15:29.623Z,11.64
2023-04-02T15:18:03.865Z,11.54
2023-04-02T15:20:41.482Z,11.54
2023-04-02T15:23:18.075Z,11.63
2023-04-02T15:25:50.513Z,11.66
2023-04-02T15:28:28.775Z,11.59
2023-04-02T15:31:00.759Z,11.52
2023-04-02T15:33:45.466Z,11.21
2023-04-02T15:36:41.584Z,11.39
2023-04-02T15:39:40.966Z,11.35
2023-04-02T15:42:19.938Z,11.40
2023-04-02T15:45:15.394Z,11.42
2023-04-02T15:47:58.996Z,11.73
2023-04-02T15:50:52.687Z,11.54
2023-04-02T15:53:35.859Z,11.38
2023-04-02T15:56:17.756Z,11.17
2023-04-02T15:59:00.108Z,11.22
2023-04-02T16:01:42.160Z,11.32
2023-04-02T16:04:44.375Z,11.61
2023-04-02T16:07:59.223Z,11.14
2023-04-02T16:10:41.787Z,11.03
2023-04-02T16:13:19.633Z,11.46
2023-04-02T16:15:54.897Z,11.38
2023-04-02T16:18:31.828Z,11.32
2023-04-02T16:21:03.967Z,11.36
2023-04-02T16:23:37.160Z,11.22
2023-04-02T16:26:24.004Z,11.24
2023-04-02T16:29:04.252Z,11.20
2023-04-02T16:31:40.267Z,11.03
2023-04-02T16:34:17.226Z,11.10
2023-04-02T16:36:56.826Z,11.07
2023-04-02T16:39:35.621Z,11.04
2023-04-02T16:42:13.902Z,10.99
2023-04-02T16:44:56.380Z,10.89
2023-04-02T16:47:43.713Z,10.86
2023-04-02T16:50:22.955Z,10.93
2023-04-02T16:52:58.370Z,10.88
2023-04-02T16:55:42.481Z,10.77
2023-04-02T16:58:33.087Z,10.79
2023-04-02T17:01:08.623Z,10.87
2023-04-02T17:04:02.596Z,10.64
2023-04-02T17:06:41.825Z,10.58
2023-04-02T17:09:17.311Z,10.11
2023-04-02T17:11:51.327Z,10.55
2023-04-02T17:14:29.553Z,10.64
2023-04-02T17:17:03.177Z,10.72
2023-04-02T17:19:33.689Z,10.51
2023-04-02T17:22:04.709Z,10.53
2023-04-02T17:24:40.146Z,10.30
2023-04-02T17:27:19.679Z,10.43
2023-04-02T17:29:53.001Z,10.59
2023-04-02T17:32:27.274Z,10.68
2023-04-02T17:34:55.944Z,10.50
2023-04-02T17:37:32.331Z,10.50
2023-04-02T17:40:10.967Z,10.51
2023-04-02T17:42:49.777Z,10.43
2023-04-02T17:45:23.821Z,10.44
2023-04-02T17:47:59.928Z,10.56
2023-04-02T17:50:40.139Z,10.74
2023-04-02T17:53:20.030Z,10.66
2023-04-02T17:56:02.189Z,10.17
2023-04-02T17:58:52.784Z,10.46
2023-04-02T18:01:37.863Z,10.46
2023-04-02T18:04:19.749Z,10.42
2023-04-02T18:06:55.697Z,10.59
2023-04-02T18:09:38.310Z,10.48
2023-04-02T18:12:18.315Z,10.53
2023-04-02T18:15:07.096Z,10.50
2023-04-02T18:17:46.906Z,10.63
2023-04-02T18:20:30.074Z,10.30
2023-04-02T18:23:08.747Z,10.14
2023-04-02T18:25:55.453Z,10.31
2023-04-02T18:28:33.857Z,10.39
2023-04-02T18:31:10.791Z,10.23
2023-04-02T18:33:54.657Z,10.29
2023-04-02T18:36:30.581Z,10.51
2023-04-02T18:39:05.144Z,10.02
2023-04-02T18:41:47.072Z,10.05
2023-04-02T18:44:29.669Z,10.40
2023-04-02T18:47:06.519Z,10.36
2023-04-02T18:49:40.555Z,10.22
2023-04-02T18:52:13.669Z,10.23
2023-04-02T18:54:48.000Z,10.27
2023-04-02T18:57:21.233Z,10.06
2023-04-02T18:59:56.334Z,9.86
2023-04-02T19:02:43.001Z,10.02
2023-04-02T19:05:22.613Z,10.01
2023-04-02T19:07:55.764Z,9.65
2023-04-02T19:10:34.486Z,10.15
2023-04-02T19:13:02.947Z,10.03
2023-04-02T19:15:40.366Z,9.97
2023-04-02T19:18:27.196Z,9.72
2023-04-02T19:21:00.747Z,9.50
2023-04-02T19:23:45.874Z,9.73
2023-04-02T19:26:17.512Z,9.47
2023-04-02T19:28:58.046Z,9.62
2023-04-02T19:31:43.736Z,9.64
2023-04-02T19:34:21.746Z,9.59
2023-04-02T19:36:56.552Z,9.27
2023-04-02T19:39:48.404Z,9.49
2023-04-02T19:42:34.482Z,9.54
2023-04-02T19:45:04.290Z,9.48
2023-04-02T19:47:32.980Z,9.49
2023-04-02T19:50:02.878Z,9.56
2023-04-02T19:52:31.353Z,9.32
2023-04-02T19:54:59.857Z,9.36
2023-04-02T19:57:31.721Z,9.53
2023-04-02T20:00:00.292Z,9.38
2023-04-02T20:02:28.538Z,9.65
2023-04-02T20:04:58.270Z,9.53
2023-04-02T20:07:28.305Z,9.27
2023-04-02T20:09:59.071Z,9.38
2023-04-02T20:12:27.629Z,9.38
2023-04-02T20:14:55.844Z,9.34
2023-04-02T20:17:24.156Z,9.53
2023-04-02T20:19:52.867Z,9.45
2023-04-02T20:22:21.248Z,9.60
2023-04-02T20:24:50.913Z,9.67
2023-04-02T20:27:19.386Z,9.49
2023-04-02T20:29:48.455Z,9.36
2023-04-02T20:32:17.659Z,9.41
2023-04-02T20:34:47.287Z,9.29
2023-04-02T20:37:15.647Z,9.08
2023-04-02T20:39:44.264Z,9.22
2023-04-02T20:42:14.538Z,9.19
2023-04-02T20:44:42.872Z,9.29
2023-04-02T20:47:11.135Z,8.71
2023-04-02T20:49:39.552Z,8.96
2023-04-02T20:52:08.266Z,8.99
2023-04-02T20:54:36.751Z,8.71
2023-04-02T20:57:05.569Z,8.73
2023-04-02T20:59:35.405Z,8.62
2023-04-02T21:02:03.653Z,8.20
2023-04-02T21:04:31.866Z,8.40
2023-04-02T21:07:00.174Z,8.43
2023-04-02T21:09:28.782Z,8.25
2023-04-02T21:11:57.429Z,8.33
2023-04-02T21:14:25.920Z,8.12
2023-04-02T21:16:55.867Z,8.17
2023-04-02T21:19:24.331Z,8.22
2023-04-02T21:21:55.666Z,7.96
2023-04-02T21:24:23.985Z,8.09
2023-04-02T21:26:52.678Z,7.87
2023-04-02T21:29:21.182Z,7.82
2023-04-02T21:31:50.482Z,7.91
2023-04-02T21:34:20.616Z,7.94
2023-04-02T21:36:50.617Z,7.96
2023-04-02T21:39:21.228Z,7.76
2023-04-02T21:41:51.690Z,7.59
2023-04-02T21:44:22.074Z,7.54
2023-04-02T21:46:52.148Z,7.59
2023-04-02T21:49:26.556Z,7.53
2023-04-02T21:51:54.876Z,7.22
2023-04-02T21:54:23.653Z,7.27
2023-04-02T21:56:52.822Z,6.93
2023-04-02T21:59:21.533Z,7.11
2023-04-02T22:01:52.077Z,7.20
2023-04-02T22:04:22.184Z,7.24
2023-04-02T22:06:53.466Z,7.21
2023-04-02T22:09:23.939Z,6.95
2023-04-02T22:11:54.383Z,6.94
2023-04-02T22:14:23.647Z,7.08
2023-04-02T22:16:52.274Z,6.97
2023-04-02T22:19:20.563Z,6.98
2023-04-02T22:21:48.954Z,7.14
2023-04-02T22:24:22.242Z,7.30
2023-04-02T22:26:51.136Z,7.31
2023-04-02T22:29:19.332Z,6.98
2023-04-02T22:31:47.766Z,6.95
2023-04-02T22:34:16.530Z,7.00
2023-04-02T22:36:44.619Z,6.94
2023-04-02T22:39:13.677Z,7.03
2023-04-02T22:41:43.423Z,7.09
2023-04-02T22:44:16.017Z,7.19
2023-04-02T22:46:44.820Z,7.24
2023-04-02T22:49:19.386Z,7.30
2023-04-02T22:51:48.039Z,7.17
2023-04-02T22:54:16.327Z,7.18
2023-04-02T22:56:45.914Z,7.15
2023-04-02T22:59:14.277Z,7.16
2023-04-02T23:01:42.697Z,7.09
2023-04-02T23:04:10.916Z,6.91
2023-04-02T23:06:39.096Z,6.72
2023-04-02T23:09:07.221Z,6.76
2023-04-02T23:11:36.060Z,6.52
2023-04-02T23:14:06.019Z,6.47
2023-04-02T23:16:35.072Z,6.36
2023-04-02T23:19:03.824Z,6.34
2023-04-02T23:21:32.114Z,5.91
2023-04-02T23:24:03.316Z,6.25
2023-04-02T23:26:32.502Z,6.32
2023-04-02T23:29:01.984Z,6.22
2023-04-02T23:31:31.944Z,6.24
2023-04-02T23:34:00.281Z,6.16
2023-04-02T23:36:30.568Z,6.21
2023-04-02T23:39:01.677Z,6.00
2023-04-02T23:41:31.145Z,5.94
2023-04-02T23:43:59.879Z,5.98
2023-04-02T23:46:33.279Z,5.92
2023-04-02T23:49:02.131Z,5.79
2023-04-02T23:51:31.360Z,5.21
2023-04-02T23:54:00.177Z,5.97
2023-04-02T23:56:29.500Z,5.93
2023-04-02T23:58:57.908Z,5.93
